createdAt,value
2018-12-22T00:02:20.914Z,1.33
2018-12-22T00:04:49.084Z,2.33
2018-12-22T00:07:17.265Z,4.30
2018-12-22T00:09:45.474Z,1.37
2018-12-22T00:12:13.724Z,1.53
2018-12-22T00:14:41.915Z,2.20
2018-12-22T00:17:10.160Z,2.80
2018-12-22T00:19:38.336Z,3.40
2018-12-22T00:22:06.509Z,2.90
2018-12-22T00:24:34.720Z,4.60
2018-12-22T00:27:02.974Z,5.27
2018-12-22T00:29:31.172Z,1.83
2018-12-22T00:31:59.347Z,1.60
2018-12-22T00:34:27.523Z,3.03
2018-12-22T00:36:55.759Z,2.60
2018-12-22T00:39:23.959Z,2.73
2018-12-22T00:41:52.142Z,2.87
2018-12-22T00:44:20.354Z,3.57
2018-12-22T00:46:48.800Z,1.90
2018-12-22T00:49:16.944Z,3.57
2018-12-22T00:51:45.089Z,2.67
2018-12-22T00:54:13.279Z,1.07
2018-12-22T00:56:41.467Z,3.73
2018-12-22T00:59:09.831Z,4.13
2018-12-22T01:01:37.987Z,2.97
2018-12-22T01:04:06.243Z,2.73
2018-12-22T01:06:34.500Z,1.60
2018-12-22T01:09:02.968Z,0.80
2018-12-22T01:11:31.239Z,2.33
2018-12-22T01:13:59.439Z,1.53
2018-12-22T01:16:27.620Z,2.13
2018-12-22T01:18:55.804Z,0.83
2018-12-22T01:21:24.076Z,3.87
2018-12-22T01:23:53.116Z,2.97
2018-12-22T01:26:21.287Z,2.23
2018-12-22T01:28:49.465Z,2.30
2018-12-22T01:31:17.640Z,2.43
2018-12-22T01:33:45.812Z,2.00
2018-12-22T01:36:13.959Z,3.80
2018-12-22T01:38:42.134Z,3.80
2018-12-22T01:41:10.304Z,4.87
2018-12-22T01:43:39.404Z,6.53
2018-12-22T01:46:07.560Z,3.77
2018-12-22T01:48:35.824Z,5.43
2018-12-22T01:51:04.116Z,4.00
2018-12-22T01:53:32.280Z,2.73
2018-12-22T01:56:00.466Z,3.47
2018-12-22T01:58:28.673Z,0.60
2018-12-22T02:00:56.805Z,1.43
2018-12-22T02:03:25.053Z,0.50
2018-12-22T02:05:53.228Z,0.90
2018-12-22T02:08:21.406Z,0.60
2018-12-22T02:10:49.573Z,0.83
2018-12-22T02:13:17.734Z,1.53
2018-12-22T02:15:45.895Z,1.33
2018-12-22T02:18:14.087Z,0.83
2018-12-22T02:20:42.345Z,0.77
2018-12-22T02:23:10.509Z,0.80
2018-12-22T02:25:38.765Z,1.10
2018-12-22T02:28:07.027Z,0.90
2018-12-22T02:30:35.194Z,0.70
2018-12-22T02:33:03.539Z,0.77
2018-12-22T02:35:31.691Z,1.00
2018-12-22T02:38:00.407Z,0.63
2018-12-22T02:40:28.593Z,0.97
2018-12-22T02:42:56.766Z,1.30
2018-12-22T02:45:25.028Z,0.60
2018-12-22T02:47:53.264Z,0.87
2018-12-22T02:50:21.434Z,2.20
2018-12-22T02:52:49.590Z,0.70
2018-12-22T02:55:17.835Z,0.40
2018-12-22T02:57:45.987Z,1.30
2018-12-22T03:00:14.247Z,0.90
2018-12-22T03:02:42.491Z,1.20
2018-12-22T03:05:10.743Z,1.20
2018-12-22T03:07:38.896Z,0.57
2018-12-22T03:10:07.067Z,0.80
2018-12-22T03:12:35.219Z,1.90
2018-12-22T03:15:03.909Z,0.73
2018-12-22T03:17:32.154Z,0.90
2018-12-22T03:20:00.512Z,0.60
2018-12-22T03:22:28.803Z,0.50
2018-12-22T03:24:57.013Z,0.87
2018-12-22T03:27:25.194Z,0.30
2018-12-22T03:29:53.503Z,1.23
2018-12-22T03:32:21.701Z,0.60
2018-12-22T03:34:49.984Z,0.60
2018-12-22T03:37:18.147Z,0.60
2018-12-22T03:39:46.319Z,1.10
2018-12-22T03:42:14.681Z,0.70
2018-12-22T03:44:42.858Z,0.73
2018-12-22T03:47:11.027Z,0.90
2018-12-22T03:49:39.204Z,0.80
2018-12-22T03:52:07.455Z,0.57
2018-12-22T03:54:35.627Z,0.70
2018-12-22T03:57:03.847Z,0.40
2018-12-22T03:59:32.475Z,0.73
2018-12-22T04:02:00.635Z,0.60
2018-12-22T04:04:28.816Z,0.40
2018-12-22T04:06:56.983Z,0.60
2018-12-22T04:09:25.178Z,0.80
2018-12-22T04:11:53.428Z,0.47
2018-12-22T04:14:21.587Z,0.60
2018-12-22T04:16:49.736Z,0.63
2018-12-22T04:19:17.931Z,0.53
2018-12-22T04:21:46.095Z,0.50
2018-12-22T04:24:14.278Z,1.13
2018-12-22T04:26:42.422Z,1.60
2018-12-22T04:29:10.672Z,0.70
2018-12-22T04:31:38.847Z,1.20
2018-12-22T04:34:07.023Z,1.17
2018-12-22T04:36:35.268Z,1.57
2018-12-22T04:39:04.679Z,1.37
2018-12-22T04:41:32.844Z,0.57
2018-12-22T04:44:01.011Z,0.97
2018-12-22T04:46:29.171Z,0.80
2018-12-22T04:48:57.345Z,0.47
2018-12-22T04:51:25.495Z,0.50
2018-12-22T04:53:53.674Z,0.50
2018-12-22T04:56:21.926Z,0.63
2018-12-22T04:58:50.130Z,1.90
2018-12-22T05:01:18.294Z,0.40
2018-12-22T05:03:46.464Z,0.60
2018-12-22T05:06:14.702Z,0.43
2018-12-22T05:08:43.016Z,0.60
2018-12-22T05:11:11.175Z,0.60
2018-12-22T05:13:39.345Z,0.30
2018-12-22T05:16:07.503Z,0.40
2018-12-22T05:18:35.667Z,0.30
2018-12-22T05:21:03.914Z,0.20
2018-12-22T05:23:32.085Z,0.67
2018-12-22T05:26:00.284Z,0.50
2018-12-22T05:28:28.456Z,0.50
2018-12-22T05:30:56.651Z,0.53
2018-12-22T05:33:24.924Z,0.40
2018-12-22T05:35:53.093Z,0.50
2018-12-22T05:38:21.264Z,2.47
2018-12-22T05:40:49.438Z,0.77
2018-12-22T05:43:17.586Z,0.50
2018-12-22T05:45:45.781Z,0.57
2018-12-22T05:48:13.958Z,0.87
2018-12-22T05:50:42.185Z,0.60
2018-12-22T05:53:10.349Z,0.40
2018-12-22T05:55:38.542Z,0.37
2018-12-22T05:58:06.786Z,1.27
2018-12-22T06:00:34.963Z,0.50
2018-12-22T06:03:03.130Z,0.83
2018-12-22T06:05:31.288Z,0.80
2018-12-22T06:07:59.436Z,0.30
2018-12-22T06:10:27.591Z,0.53
2018-12-22T06:12:55.813Z,0.40
2018-12-22T06:15:24.032Z,0.23
2018-12-22T06:17:52.282Z,0.50
2018-12-22T06:20:20.687Z,1.57
2018-12-22T06:22:48.894Z,0.40
2018-12-22T06:25:17.151Z,1.97
2018-12-22T06:27:45.421Z,0.53
2018-12-22T06:30:13.591Z,0.47
2018-12-22T06:32:41.746Z,1.13
2018-12-22T06:35:10.021Z,2.10
2018-12-22T06:37:38.404Z,1.23
2018-12-22T06:40:06.998Z,0.83
2018-12-22T06:42:35.200Z,1.20
2018-12-22T06:45:03.680Z,0.30
2018-12-22T06:47:31.856Z,0.90
2018-12-22T06:50:00.020Z,0.60
2018-12-22T06:52:28.197Z,0.67
2018-12-22T06:54:56.368Z,0.60
2018-12-22T06:57:24.582Z,1.13
2018-12-22T06:59:52.760Z,0.53
2018-12-22T07:02:20.918Z,0.20
2018-12-22T07:04:49.068Z,2.80
2018-12-22T07:07:17.329Z,5.80
2018-12-22T07:09:45.519Z,0.80
2018-12-22T07:12:13.798Z,0.70
2018-12-22T07:14:42.035Z,0.63
2018-12-22T07:17:10.199Z,1.03
2018-12-22T07:19:38.567Z,1.30
2018-12-22T07:22:06.851Z,2.10
2018-12-22T07:24:35.101Z,0.70
2018-12-22T07:27:03.293Z,0.50
2018-12-22T07:29:31.479Z,1.53
2018-12-22T07:31:59.655Z,1.13
2018-12-22T07:34:27.836Z,0.87
2018-12-22T07:36:57.213Z,3.30
2018-12-22T07:39:25.428Z,1.03
2018-12-22T07:41:53.695Z,1.10
2018-12-22T07:44:21.875Z,0.80
2018-12-22T07:46:50.050Z,0.50
2018-12-22T07:49:18.236Z,0.47
2018-12-22T07:51:46.429Z,1.07
2018-12-22T07:54:15.107Z,1.57
2018-12-22T07:56:43.306Z,0.63
2018-12-22T07:59:12.150Z,1.63
2018-12-22T08:01:40.308Z,0.63
2018-12-22T08:04:08.512Z,0.70
2018-12-22T08:06:36.812Z,0.80
2018-12-22T08:09:07.063Z,1.20
2018-12-22T08:11:35.293Z,1.03
2018-12-22T08:14:03.942Z,0.70
2018-12-22T08:16:32.123Z,3.47
2018-12-22T08:19:00.403Z,0.83
2018-12-22T08:21:28.643Z,0.40
2018-12-22T08:23:56.892Z,1.20
2018-12-22T08:26:25.082Z,2.50
2018-12-22T08:28:53.249Z,0.70
2018-12-22T08:31:23.130Z,2.30
2018-12-22T08:33:51.569Z,1.87
2018-12-22T08:36:20.251Z,1.13
2018-12-22T08:38:48.422Z,1.20
2018-12-22T08:41:16.660Z,0.63
2018-12-22T08:43:44.851Z,0.73
2018-12-22T08:46:13.192Z,0.60
2018-12-22T08:48:41.351Z,1.77
2018-12-22T08:51:09.560Z,0.70
2018-12-22T08:53:37.777Z,1.90
2018-12-22T08:56:06.019Z,2.90
2018-12-22T08:58:34.206Z,1.13
2018-12-22T09:01:02.476Z,0.70
2018-12-22T09:03:30.679Z,0.70
2018-12-22T09:05:58.951Z,0.40
2018-12-22T09:08:27.104Z,0.30
2018-12-22T09:10:55.278Z,0.60
2018-12-22T09:13:23.587Z,0.63
2018-12-22T09:15:51.776Z,0.50
2018-12-22T09:18:19.918Z,0.80
2018-12-22T09:20:48.200Z,0.90
2018-12-22T09:23:16.388Z,0.67
2018-12-22T09:25:44.571Z,0.60
2018-12-22T09:28:12.769Z,1.43
2018-12-22T09:30:41.113Z,1.20
2018-12-22T09:33:09.385Z,1.40
2018-12-22T09:35:37.652Z,0.97
2018-12-22T09:38:05.835Z,1.03
2018-12-22T09:40:34.100Z,2.63
2018-12-22T09:43:02.286Z,1.03
2018-12-22T09:45:30.613Z,2.13
2018-12-22T09:47:58.847Z,1.70
2018-12-22T09:50:27.027Z,1.83
2018-12-22T09:52:55.203Z,0.73
2018-12-22T09:55:23.402Z,0.93
2018-12-22T09:57:51.543Z,1.10
2018-12-22T10:00:19.745Z,1.00
2018-12-22T10:02:47.919Z,1.17
2018-12-22T10:05:16.083Z,1.13
2018-12-22T10:07:44.267Z,1.47
2018-12-22T10:10:15.234Z,1.30
2018-12-22T10:12:43.403Z,0.93
2018-12-22T10:15:11.691Z,1.37
2018-12-22T10:17:40.264Z,0.90
2018-12-22T10:20:09.168Z,4.53
2018-12-22T10:22:37.359Z,1.20
2018-12-22T10:25:08.899Z,0.87
2018-12-22T10:27:37.113Z,1.60
2018-12-22T10:30:08.347Z,1.70
2018-12-22T10:32:36.526Z,1.53
2018-12-22T10:35:06.934Z,2.33
2018-12-22T10:37:35.331Z,1.20
2018-12-22T10:40:03.878Z,1.13
2018-12-22T10:42:32.037Z,0.93
2018-12-22T10:45:00.278Z,1.07
2018-12-22T10:47:28.567Z,0.87
2018-12-22T10:49:56.960Z,1.90
2018-12-22T10:52:25.123Z,4.20
2018-12-22T10:54:53.397Z,1.73
2018-12-22T10:57:21.584Z,1.93
2018-12-22T10:59:49.839Z,1.67
2018-12-22T11:02:18.027Z,3.70
2018-12-22T11:04:46.291Z,1.77
2018-12-22T11:07:14.651Z,1.93
2018-12-22T11:09:42.929Z,1.70
2018-12-22T11:12:11.226Z,1.63
2018-12-22T11:14:39.395Z,4.40
2018-12-22T11:17:07.574Z,3.00
2018-12-22T11:19:35.811Z,4.80
2018-12-22T11:22:04.035Z,3.43
2018-12-22T11:24:32.201Z,1.40
2018-12-22T11:27:00.849Z,2.33
2018-12-22T11:29:29.039Z,3.37
2018-12-22T11:31:57.271Z,2.77
2018-12-22T11:34:25.491Z,1.40
2018-12-22T11:36:53.745Z,2.87
2018-12-22T11:39:21.947Z,2.20
2018-12-22T11:41:50.222Z,7.17
2018-12-22T11:44:18.415Z,4.37
2018-12-22T11:46:46.733Z,4.30
2018-12-22T11:49:29.483Z,6.70
2018-12-22T11:51:57.758Z,4.37
2018-12-22T11:54:25.962Z,3.90
2018-12-22T11:56:55.239Z,4.90
2018-12-22T11:59:23.399Z,3.93
2018-12-22T12:01:51.636Z,2.83
2018-12-22T12:04:19.820Z,3.10
2018-12-22T12:06:47.998Z,3.70
2018-12-22T12:09:16.257Z,2.53
2018-12-22T12:11:44.416Z,2.67
2018-12-22T12:14:12.576Z,5.07
2018-12-22T12:16:52.668Z,3.73
2018-12-22T12:19:23.739Z,2.13
2018-12-22T12:21:51.911Z,1.83
2018-12-22T12:24:20.158Z,3.27
2018-12-22T12:26:48.866Z,4.30
2018-12-22T12:29:17.514Z,2.57
2018-12-22T12:31:52.149Z,7.70
2018-12-22T12:34:15.929Z,4.13
2018-12-22T12:36:44.192Z,3.13
2018-12-22T12:39:14.311Z,3.33
2018-12-22T12:41:42.613Z,3.30
2018-12-22T12:44:10.852Z,5.63
2018-12-22T12:46:47.704Z,4.53
2018-12-22T12:49:16.702Z,3.83
2018-12-22T12:51:45.052Z,3.33
2018-12-22T12:54:13.227Z,3.87
2018-12-22T12:56:46.327Z,2.63
2018-12-22T12:59:14.557Z,4.57
2018-12-22T13:01:42.772Z,4.30
2018-12-22T13:04:10.994Z,10.60
2018-12-22T13:06:39.322Z,2.70
2018-12-22T13:09:08.793Z,5.93
2018-12-22T13:11:37.170Z,4.13
2018-12-22T13:14:11.251Z,5.67
2018-12-22T13:16:40.249Z,4.17
2018-12-22T13:19:08.418Z,4.97
2018-12-22T13:21:36.720Z,5.30
2018-12-22T13:24:04.911Z,8.63
2018-12-22T13:26:36.885Z,9.23
2018-12-22T13:29:03.483Z,7.17
2018-12-22T13:31:31.652Z,11.43
2018-12-22T13:33:59.819Z,5.27
2018-12-22T13:36:34.562Z,5.17
2018-12-22T13:39:02.380Z,4.00
2018-12-22T13:41:30.549Z,5.30
2018-12-22T13:43:58.710Z,3.10
2018-12-22T13:46:26.883Z,6.60
2018-12-22T13:48:55.099Z,2.37
2018-12-22T13:51:23.722Z,3.10
2018-12-22T13:53:52.067Z,2.67
2018-12-22T13:56:20.236Z,2.93
2018-12-22T13:58:48.454Z,3.80
2018-12-22T14:01:19.562Z,3.60
2018-12-22T14:04:51.059Z,3.37
2018-12-22T14:07:19.238Z,3.60
2018-12-22T14:09:47.404Z,4.43
2018-12-22T14:12:15.583Z,2.97
2018-12-22T14:14:44.448Z,3.93
2018-12-22T14:17:20.509Z,3.20
2018-12-22T14:19:54.322Z,4.13
2018-12-22T14:22:22.488Z,4.03
2018-12-22T14:24:52.598Z,5.10
2018-12-22T14:27:20.852Z,4.13
2018-12-22T14:29:49.132Z,3.83
2018-12-22T14:32:17.292Z,4.57
2018-12-22T14:34:48.672Z,1.97
2018-12-22T14:37:16.911Z,1.63
2018-12-22T14:39:45.103Z,2.23
2018-12-22T14:42:13.343Z,3.70
2018-12-22T14:44:41.540Z,4.30
2018-12-22T14:47:09.734Z,4.57
2018-12-22T14:49:37.956Z,2.57
2018-12-22T14:53:30.367Z,4.27
2018-12-22T14:55:58.562Z,4.23
2018-12-22T14:58:28.543Z,9.47
2018-12-22T15:00:56.742Z,3.27
2018-12-22T15:03:24.978Z,2.87
2018-12-22T15:05:53.223Z,3.70
2018-12-22T15:08:21.395Z,3.77
2018-12-22T15:10:49.564Z,3.47
2018-12-22T15:13:17.715Z,7.87
2018-12-22T15:15:45.967Z,4.63
2018-12-22T15:18:14.188Z,4.73
2018-12-22T15:20:42.338Z,4.73
2018-12-22T15:23:12.648Z,4.57
2018-12-22T15:25:40.812Z,4.17
2018-12-22T15:28:08.989Z,3.60
2018-12-22T15:30:37.177Z,3.73
2018-12-22T15:33:05.429Z,3.43
2018-12-22T15:35:33.593Z,3.27
2018-12-22T15:38:01.753Z,4.17
2018-12-22T15:40:29.995Z,6.97
2018-12-22T15:42:58.183Z,6.73
2018-12-22T15:45:26.420Z,6.40
2018-12-22T15:47:54.604Z,4.00
2018-12-22T15:50:25.223Z,5.73
2018-12-22T15:52:54.046Z,3.90
2018-12-22T15:55:22.346Z,4.57
2018-12-22T15:57:50.610Z,5.67
2018-12-22T16:00:18.838Z,4.87
2018-12-22T16:02:52.983Z,4.73
2018-12-22T16:05:17.177Z,4.33
2018-12-22T16:07:45.430Z,3.67
2018-12-22T16:10:14.441Z,3.23
2018-12-22T16:12:42.702Z,3.30
2018-12-22T16:15:13.669Z,5.17
2018-12-22T16:17:42.070Z,5.23
2018-12-22T16:20:11.340Z,6.00
2018-12-22T16:22:41.673Z,6.70
2018-12-22T16:25:11.455Z,4.23
2018-12-22T16:27:40.267Z,6.07
2018-12-22T16:30:20.872Z,8.30
2018-12-22T16:32:49.354Z,5.10
2018-12-22T16:35:17.762Z,4.27
2018-12-22T16:37:46.026Z,6.67
2018-12-22T16:40:14.214Z,7.13
2018-12-22T16:42:42.444Z,5.43
2018-12-22T16:45:13.376Z,8.50
2018-12-22T16:47:41.603Z,7.27
2018-12-22T16:50:12.160Z,3.77
2018-12-22T16:52:40.375Z,9.50
2018-12-22T16:55:10.867Z,5.53
2018-12-22T16:57:41.213Z,3.53
2018-12-22T17:00:14.193Z,5.03
2018-12-22T17:02:48.688Z,4.17
2018-12-22T17:05:16.863Z,5.73
2018-12-22T17:07:45.047Z,4.57
2018-12-22T17:10:13.223Z,8.30
2018-12-22T17:12:41.419Z,3.00
2018-12-22T17:15:10.841Z,4.97
2018-12-22T17:17:39.015Z,6.73
2018-12-22T17:20:09.452Z,4.62
2018-12-22T17:22:47.252Z,7.13
2018-12-22T17:25:24.613Z,4.00
2018-12-22T17:27:52.785Z,3.53
2018-12-22T17:30:20.944Z,4.03
2018-12-22T17:32:49.668Z,3.70
2018-12-22T17:35:17.848Z,5.10
2018-12-22T17:37:46.102Z,2.40
2018-12-22T17:40:14.261Z,4.60
2018-12-22T17:42:42.479Z,4.63
2018-12-22T17:45:11.197Z,6.00
2018-12-22T17:47:40.383Z,4.60
2018-12-22T17:50:08.936Z,7.90
2018-12-22T17:52:37.263Z,5.80
2018-12-22T17:55:07.176Z,3.83
2018-12-22T17:57:35.523Z,5.97
2018-12-22T18:00:03.991Z,11.37
2018-12-22T18:02:32.309Z,7.93
2018-12-22T18:05:00.559Z,4.97
2018-12-22T18:07:28.911Z,6.63
2018-12-22T18:09:57.141Z,6.60
2018-12-22T18:12:25.309Z,6.53
2018-12-22T18:14:53.485Z,6.70
2018-12-22T18:17:21.643Z,7.70
2018-12-22T18:19:49.811Z,7.13
2018-12-22T18:22:17.968Z,8.43
2018-12-22T18:24:46.416Z,7.60
2018-12-22T18:27:14.582Z,9.73
2018-12-22T18:29:42.731Z,8.63
2018-12-22T18:32:10.888Z,8.67
2018-12-22T18:34:39.140Z,8.50
2018-12-22T18:37:07.428Z,8.63
2018-12-22T18:39:35.579Z,7.53
2018-12-22T18:42:03.852Z,3.83
2018-12-22T18:44:32.014Z,4.23
2018-12-22T18:47:00.261Z,6.13
2018-12-22T18:49:28.459Z,10.70
2018-12-22T18:51:56.655Z,7.00
2018-12-22T18:54:24.812Z,6.47
2018-12-22T18:56:52.996Z,5.47
2018-12-22T18:59:31.896Z,5.60
2018-12-22T19:02:00.411Z,4.80
2018-12-22T19:04:28.587Z,4.83
2018-12-22T19:06:57.856Z,6.93
2018-12-22T19:09:28.745Z,7.63
2018-12-22T19:11:57.130Z,8.30
2018-12-22T19:14:25.393Z,9.03
2018-12-22T19:16:53.595Z,9.87
2018-12-22T19:19:21.961Z,6.40
2018-12-22T19:21:50.202Z,6.60
2018-12-22T19:24:18.362Z,9.50
2018-12-22T19:26:46.547Z,5.23
2018-12-22T19:29:14.739Z,4.33
2018-12-22T19:31:42.921Z,6.53
2018-12-22T19:34:11.117Z,6.60
2018-12-22T19:36:39.287Z,8.83
2018-12-22T19:39:07.744Z,8.87
2018-12-22T19:41:35.940Z,7.07
2018-12-22T19:44:04.197Z,9.77
2018-12-22T19:46:32.392Z,6.47
2018-12-22T19:49:00.655Z,7.27
2018-12-22T19:51:28.920Z,10.70
2018-12-22T19:53:57.088Z,9.87
2018-12-22T19:56:25.348Z,8.33
2018-12-22T19:58:53.511Z,7.07
2018-12-22T20:01:21.767Z,7.10
2018-12-22T20:03:49.935Z,11.23
2018-12-22T20:06:18.100Z,10.03
2018-12-22T20:08:46.272Z,13.43
2018-12-22T20:11:14.511Z,7.67
2018-12-22T20:13:42.754Z,8.97
2018-12-22T20:16:10.927Z,9.07
2018-12-22T20:18:39.087Z,6.97
2018-12-22T20:21:07.252Z,11.20
2018-12-22T20:23:35.475Z,10.77
2018-12-22T20:26:03.615Z,8.30
2018-12-22T20:28:31.797Z,8.27
2018-12-22T20:30:59.987Z,9.17
2018-12-22T20:33:28.227Z,6.83
2018-12-22T20:35:56.401Z,7.23
2018-12-22T20:38:24.632Z,7.10
2018-12-22T20:40:52.805Z,7.07
2018-12-22T20:43:20.950Z,5.37
2018-12-22T20:45:49.115Z,4.70
2018-12-22T20:48:17.309Z,4.57
2018-12-22T20:50:45.488Z,7.50
2018-12-22T20:53:13.680Z,5.37
2018-12-22T20:55:41.883Z,6.83
2018-12-22T20:58:10.039Z,6.63
2018-12-22T21:00:38.217Z,9.73
2018-12-22T21:03:06.456Z,7.20
2018-12-22T21:05:36.756Z,4.57
2018-12-22T21:08:04.944Z,5.33
2018-12-22T21:10:33.099Z,7.67
2018-12-22T21:13:01.314Z,12.07
2018-12-22T21:15:29.476Z,8.17
2018-12-22T21:17:57.719Z,7.10
2018-12-22T21:20:25.891Z,5.90
2018-12-22T21:22:54.063Z,6.30
2018-12-22T21:25:22.271Z,7.57
2018-12-22T21:27:50.500Z,6.47
2018-12-22T21:30:18.692Z,11.23
2018-12-22T21:32:46.973Z,8.23
2018-12-22T21:35:15.156Z,8.93
2018-12-22T21:37:43.323Z,8.80
2018-12-22T21:40:11.494Z,9.77
2018-12-22T21:42:39.683Z,11.07
2018-12-22T21:45:08.095Z,4.77
2018-12-22T21:47:36.327Z,6.83
2018-12-22T21:50:05.083Z,6.20
2018-12-22T21:52:33.283Z,7.80
2018-12-22T21:55:01.836Z,8.97
2018-12-22T21:57:30.019Z,8.27
2018-12-22T21:59:58.195Z,8.53
2018-12-22T22:02:26.347Z,8.67
2018-12-22T22:04:54.508Z,6.53
2018-12-22T22:07:22.683Z,7.40
2018-12-22T22:09:50.925Z,8.23
2018-12-22T22:12:19.109Z,6.07
2018-12-22T22:14:47.307Z,6.27
2018-12-22T22:17:15.468Z,5.03
2018-12-22T22:19:43.649Z,5.47
2018-12-22T22:22:11.861Z,7.23
2018-12-22T22:24:40.096Z,5.97
2018-12-22T22:27:08.267Z,4.33
2018-12-22T22:29:36.447Z,3.80
2018-12-22T22:32:04.715Z,5.40
2018-12-22T22:34:32.874Z,3.30
2018-12-22T22:37:01.043Z,6.67
2018-12-22T22:39:29.195Z,4.50
2018-12-22T22:41:57.678Z,7.40
2018-12-22T22:44:25.823Z,6.90
2018-12-22T22:46:54.088Z,5.47
2018-12-22T22:49:22.280Z,7.90
2018-12-22T22:51:50.446Z,5.80
2018-12-22T22:54:18.609Z,5.70
2018-12-22T22:56:46.835Z,3.90
2018-12-22T22:59:15.079Z,13.73
2018-12-22T23:01:43.273Z,11.43
2018-12-22T23:04:11.419Z,4.07
2018-12-22T23:06:39.683Z,6.83
2018-12-22T23:09:07.833Z,8.20
2018-12-22T23:11:36.084Z,9.73
2018-12-22T23:14:04.421Z,5.83
2018-12-22T23:16:32.576Z,7.10
2018-12-22T23:19:00.807Z,5.10
2018-12-22T23:21:29.079Z,5.10
2018-12-22T23:23:57.248Z,6.10
2018-12-22T23:26:25.407Z,4.07
2018-12-22T23:28:53.604Z,6.80
2018-12-22T23:31:21.760Z,3.63
2018-12-22T23:33:49.919Z,3.00
2018-12-22T23:36:18.540Z,3.93
2018-12-22T23:38:46.698Z,3.40
2018-12-22T23:41:14.948Z,5.80
2018-12-22T23:43:43.192Z,5.73
2018-12-22T23:46:11.351Z,7.33
2018-12-22T23:48:39.542Z,4.10
2018-12-22T23:51:07.886Z,3.80
2018-12-22T23:53:36.170Z,4.40
2018-12-22T23:56:04.414Z,4.40
2018-12-22T23:58:32.607Z,4.23
